createdAt,value
2019-02-15T00:01:55.760Z,99.80
2019-02-15T00:04:25.986Z,99.90
2019-02-15T00:06:56.397Z,99.90
2019-02-15T00:09:26.719Z,99.90
2019-02-15T00:12:19.505Z,99.70
2019-02-15T00:14:49.686Z,99.40
2019-02-15T00:17:37.085Z,99.20
2019-02-15T00:20:11.325Z,99.60
2019-02-15T00:22:41.759Z,99.90
2019-02-15T00:25:12.240Z,99.90
2019-02-15T00:27:42.612Z,99.60
2019-02-15T00:30:12.628Z,99.70
2019-02-15T00:35:38.634Z,99.90
2019-02-15T00:38:08.932Z,99.90
2019-02-15T00:40:40.322Z,99.90
2019-02-15T00:43:10.235Z,99.70
2019-02-15T00:45:50.055Z,99.80
2019-02-15T00:48:22.233Z,99.90
2019-02-15T00:50:58.797Z,99.90
2019-02-15T00:53:45.282Z,99.90
2019-02-15T00:56:34.640Z,99.80
2019-02-15T00:59:30.486Z,99.90
2019-02-15T01:02:26.920Z,99.90
2019-02-15T01:05:08.495Z,99.90
2019-02-15T01:07:55.504Z,99.80
2019-02-15T01:10:40.577Z,99.90
2019-02-15T01:13:14.068Z,99.80
2019-02-15T01:15:44.225Z,99.90
2019-02-15T01:18:14.275Z,99.50
2019-02-15T01:20:44.946Z,99.60
2019-02-15T01:23:14.959Z,99.30
2019-02-15T01:25:52.687Z,99.50
2019-02-15T01:28:40.406Z,99.30
2019-02-15T01:31:39.481Z,98.70
2019-02-15T01:34:29.163Z,98.70
2019-02-15T01:37:18.432Z,98.60
2019-02-15T01:40:04.312Z,98.60
2019-02-15T01:43:06.002Z,98.40
2019-02-15T01:45:46.422Z,98.50
2019-02-15T01:48:17.015Z,98.60
2019-02-15T01:50:47.363Z,98.50
2019-02-15T01:53:17.570Z,98.60
2019-02-15T01:55:48.084Z,98.60
2019-02-15T01:58:19.109Z,98.70
2019-02-15T02:00:48.758Z,98.90
2019-02-15T02:05:59.128Z,99.10
2019-02-15T02:08:30.647Z,99.30
2019-02-15T02:11:01.042Z,99.30
2019-02-15T02:13:31.352Z,99.50
2019-02-15T02:16:01.605Z,99.40
2019-02-15T02:18:31.723Z,99.60
2019-02-15T02:21:02.560Z,99.70
2019-02-15T02:23:32.811Z,99.90
2019-02-15T02:26:03.696Z,99.90
2019-02-15T02:28:33.650Z,99.90
2019-02-15T02:31:04.239Z,99.90
2019-02-15T02:33:34.490Z,99.70
2019-02-15T02:36:05.036Z,99.90
2019-02-15T02:38:35.094Z,99.90
2019-02-15T02:41:04.976Z,99.90
2019-02-15T02:43:34.743Z,99.90
2019-02-15T02:46:05.377Z,99.90
2019-02-15T02:48:36.726Z,99.90
2019-02-15T02:51:07.027Z,99.80
2019-02-15T02:53:37.079Z,99.90
2019-02-15T02:56:07.011Z,99.70
2019-02-15T02:58:37.278Z,99.90
2019-02-15T03:01:07.815Z,99.90
2019-02-15T03:03:37.934Z,99.90
2019-02-15T03:06:08.002Z,99.90
2019-02-15T03:08:38.308Z,99.80
2019-02-15T03:11:09.509Z,99.90
2019-02-15T03:13:39.485Z,99.80
2019-02-15T03:16:10.456Z,99.70
2019-02-15T03:21:10.182Z,99.90
2019-02-15T03:23:40.221Z,99.90
2019-02-15T03:26:11.423Z,99.90
2019-02-15T03:28:41.425Z,99.90
2019-02-15T03:31:12.062Z,99.90
2019-02-15T03:33:41.842Z,99.60
2019-02-15T03:36:19.007Z,99.80
2019-02-15T03:38:57.776Z,99.50
2019-02-15T03:41:35.116Z,99.60
2019-02-15T03:44:04.938Z,99.40
2019-02-15T03:46:34.857Z,99.60
2019-02-15T03:49:04.758Z,99.40
2019-02-15T03:51:34.273Z,99.40
2019-02-15T03:54:04.316Z,99.30
2019-02-15T03:56:35.043Z,99.30
2019-02-15T03:59:04.906Z,99.30
2019-02-15T04:01:34.947Z,99.40
2019-02-15T04:04:05.325Z,99.50
2019-02-15T04:06:35.569Z,99.30
2019-02-15T04:09:06.130Z,99.30
2019-02-15T04:11:36.343Z,99.30
2019-02-15T04:14:06.431Z,99.30
2019-02-15T04:16:36.206Z,99.50
2019-02-15T04:19:05.887Z,99.60
2019-02-15T04:21:36.861Z,99.70
2019-02-15T04:24:07.497Z,99.70
2019-02-15T04:26:37.307Z,99.80
2019-02-15T04:29:07.425Z,99.70
2019-02-15T04:31:37.272Z,99.70
2019-02-15T04:34:07.415Z,99.80
2019-02-15T04:36:38.265Z,99.80
2019-02-15T04:39:08.903Z,99.80
2019-02-15T04:41:39.318Z,99.60
2019-02-15T04:44:10.482Z,99.60
2019-02-15T04:46:40.897Z,99.40
2019-02-15T04:49:11.225Z,99.60
2019-02-15T04:51:41.419Z,99.40
2019-02-15T04:54:11.971Z,99.30
2019-02-15T04:59:12.013Z,99.10
2019-02-15T05:01:42.316Z,99.00
2019-02-15T05:04:13.436Z,99.10
2019-02-15T05:06:44.503Z,99.10
2019-02-15T05:09:15.017Z,99.10
2019-02-15T05:11:45.638Z,99.10
2019-02-15T05:14:16.346Z,99.10
2019-02-15T05:16:46.789Z,99.10
2019-02-15T05:19:17.507Z,99.00
2019-02-15T05:21:49.860Z,98.90
2019-02-15T05:24:20.081Z,99.00
2019-02-15T05:26:54.599Z,99.10
2019-02-15T05:29:25.519Z,99.10
2019-02-15T05:32:13.755Z,98.90
2019-02-15T05:34:44.054Z,98.90
2019-02-15T05:37:14.433Z,98.80
2019-02-15T05:39:44.424Z,98.80
2019-02-15T05:42:14.419Z,98.90
2019-02-15T05:44:44.323Z,99.00
2019-02-15T05:47:15.355Z,99.00
2019-02-15T05:49:45.758Z,99.00
2019-02-15T05:52:16.186Z,99.00
2019-02-15T05:54:46.338Z,98.80
2019-02-15T05:57:16.277Z,99.00
2019-02-15T05:59:47.560Z,98.90
2019-02-15T06:02:17.456Z,98.80
2019-02-15T06:04:47.576Z,99.00
2019-02-15T06:07:17.569Z,99.20
2019-02-15T06:09:47.385Z,98.70
2019-02-15T06:12:17.506Z,98.80
2019-02-15T06:14:48.059Z,98.70
2019-02-15T06:17:17.921Z,98.30
2019-02-15T06:19:49.175Z,98.20
2019-02-15T06:22:19.710Z,98.20
2019-02-15T06:24:49.698Z,98.10
2019-02-15T06:27:19.850Z,98.00
2019-02-15T06:29:50.293Z,97.90
2019-02-15T06:32:20.821Z,98.10
2019-02-15T06:34:50.643Z,98.10
2019-02-15T06:37:21.424Z,98.10
2019-02-15T06:39:51.447Z,98.10
2019-02-15T06:42:21.404Z,98.10
2019-02-15T06:44:51.607Z,98.10
2019-02-15T06:47:21.913Z,98.20
2019-02-15T06:49:52.116Z,98.00
2019-02-15T06:52:23.606Z,97.90
2019-02-15T06:54:53.437Z,97.90
2019-02-15T06:57:24.514Z,97.90
2019-02-15T07:00:32.425Z,97.80
2019-02-15T07:03:25.313Z,97.60
2019-02-15T07:05:55.848Z,97.50
2019-02-15T07:08:26.700Z,97.30
2019-02-15T07:10:57.936Z,97.30
2019-02-15T07:13:29.222Z,97.20
2019-02-15T07:15:59.636Z,97.20
2019-02-15T07:18:29.605Z,97.10
2019-02-15T07:20:59.603Z,97.20
2019-02-15T07:23:31.075Z,97.20
2019-02-15T07:26:00.964Z,97.00
2019-02-15T07:28:31.642Z,97.10
2019-02-15T07:31:01.779Z,97.00
2019-02-15T07:33:32.583Z,97.20
2019-02-15T07:36:03.025Z,97.10
2019-02-15T07:38:33.824Z,97.10
2019-02-15T07:41:03.711Z,97.10
2019-02-15T07:43:33.977Z,97.00
2019-02-15T07:46:03.870Z,96.90
2019-02-15T07:48:34.081Z,96.80
2019-02-15T07:51:09.733Z,96.60
2019-02-15T07:53:36.682Z,96.40
2019-02-15T07:56:07.026Z,96.40
2019-02-15T07:58:37.253Z,96.20
2019-02-15T08:01:07.275Z,96.00
2019-02-15T08:03:38.046Z,96.00
2019-02-15T08:06:08.414Z,95.80
2019-02-15T08:08:38.134Z,96.00
2019-02-15T08:11:09.475Z,96.00
2019-02-15T08:13:40.057Z,95.70
2019-02-15T08:16:11.452Z,95.10
2019-02-15T08:18:41.799Z,95.10
2019-02-15T08:21:13.203Z,95.50
2019-02-15T08:23:44.345Z,95.40
2019-02-15T08:26:15.230Z,95.20
2019-02-15T08:28:45.132Z,95.80
2019-02-15T08:31:15.422Z,95.90
2019-02-15T08:33:45.971Z,95.70
2019-02-15T08:36:16.155Z,95.50
2019-02-15T08:38:46.887Z,95.20
2019-02-15T08:41:17.027Z,95.20
2019-02-15T08:43:47.285Z,95.10
2019-02-15T08:46:17.307Z,94.70
2019-02-15T08:48:47.494Z,94.40
2019-02-15T08:51:17.300Z,94.10
2019-02-15T08:53:47.242Z,94.00
2019-02-15T08:56:18.554Z,95.40
2019-02-15T08:58:48.787Z,95.10
2019-02-15T09:04:00.458Z,95.70
2019-02-15T09:06:30.760Z,94.90
2019-02-15T09:09:01.418Z,94.70
2019-02-15T09:11:33.866Z,95.30
2019-02-15T09:14:04.020Z,95.00
2019-02-15T09:16:34.531Z,95.20
2019-02-15T09:19:04.809Z,95.50
2019-02-15T09:21:37.837Z,95.70
2019-02-15T09:24:09.152Z,95.50
2019-02-15T09:26:39.117Z,95.70
2019-02-15T09:29:10.788Z,95.40
2019-02-15T09:31:41.161Z,95.30
2019-02-15T09:34:13.085Z,95.20
2019-02-15T09:36:44.788Z,95.20
2019-02-15T09:39:14.585Z,95.00
2019-02-15T09:41:44.715Z,94.60
2019-02-15T09:44:17.376Z,94.30
2019-02-15T09:46:47.874Z,94.10
2019-02-15T09:49:20.038Z,94.80
2019-02-15T09:51:49.798Z,94.50
2019-02-15T09:54:20.399Z,94.60
2019-02-15T09:56:50.360Z,94.10
2019-02-15T09:59:22.386Z,94.60
2019-02-15T10:01:52.392Z,94.30
2019-02-15T10:04:22.792Z,94.00
2019-02-15T10:06:53.273Z,94.60
2019-02-15T10:09:23.974Z,94.10
2019-02-15T10:11:54.064Z,94.50
2019-02-15T10:14:25.161Z,94.50
2019-02-15T10:17:16.432Z,93.50
2019-02-15T10:19:46.675Z,93.10
2019-02-15T10:22:38.023Z,92.70
2019-02-15T10:25:09.663Z,93.60
2019-02-15T10:28:00.525Z,92.80
2019-02-15T10:30:31.261Z,92.90
2019-02-15T10:33:01.802Z,92.70
2019-02-15T10:35:31.898Z,92.40
2019-02-15T10:38:02.516Z,91.70
2019-02-15T10:40:33.106Z,91.40
2019-02-15T10:43:03.574Z,91.50
2019-02-15T10:45:34.322Z,91.90
2019-02-15T10:48:04.940Z,92.20
2019-02-15T10:50:35.703Z,92.40
2019-02-15T10:53:06.205Z,91.20
2019-02-15T10:55:38.095Z,90.90
2019-02-15T10:58:09.212Z,90.70
2019-02-15T11:00:39.867Z,90.50
2019-02-15T11:03:10.475Z,91.30
2019-02-15T11:05:40.573Z,90.90
2019-02-15T11:08:11.684Z,91.10
2019-02-15T11:10:41.621Z,91.20
2019-02-15T11:13:11.492Z,91.10
2019-02-15T11:15:41.892Z,90.80
2019-02-15T11:18:11.900Z,91.00
2019-02-15T11:20:42.520Z,90.70
2019-02-15T11:23:12.638Z,89.80
2019-02-15T11:25:42.997Z,86.60
2019-02-15T11:28:14.625Z,86.80
2019-02-15T11:30:44.370Z,90.70
2019-02-15T11:33:14.702Z,90.10
2019-02-15T11:35:45.600Z,90.20
2019-02-15T11:38:18.065Z,85.20
2019-02-15T11:40:48.080Z,88.00
2019-02-15T11:43:18.412Z,86.10
2019-02-15T11:45:49.120Z,88.40
2019-02-15T11:48:19.205Z,83.50
2019-02-15T11:50:49.574Z,83.70
2019-02-15T11:53:19.837Z,82.30
2019-02-15T11:55:50.516Z,84.60
2019-02-15T11:58:20.772Z,83.90
2019-02-15T12:00:50.882Z,83.40
2019-02-15T12:03:20.783Z,81.90
2019-02-15T12:05:51.064Z,80.30
2019-02-15T12:08:21.251Z,79.60
2019-02-15T12:10:52.280Z,78.40
2019-02-15T12:13:22.287Z,80.30
2019-02-15T12:15:52.763Z,78.70
2019-02-15T12:18:23.198Z,77.10
2019-02-15T12:20:53.720Z,74.90
2019-02-15T12:23:23.477Z,75.10
2019-02-15T12:25:55.044Z,77.10
2019-02-15T12:28:25.337Z,77.40
2019-02-15T12:30:55.976Z,77.70
2019-02-15T12:33:26.190Z,77.50
2019-02-15T12:35:56.779Z,73.30
2019-02-15T12:38:26.912Z,73.60
2019-02-15T12:40:56.987Z,76.40
2019-02-15T12:43:27.146Z,76.10
2019-02-15T12:45:57.597Z,75.30
2019-02-15T12:48:28.774Z,72.70
2019-02-15T12:50:58.653Z,73.50
2019-02-15T12:53:28.611Z,71.30
2019-02-15T12:56:00.774Z,71.00
2019-02-15T12:58:31.285Z,72.80
2019-02-15T13:01:01.970Z,72.50
2019-02-15T13:03:32.695Z,74.80
2019-02-15T13:06:04.107Z,75.50
2019-02-15T13:08:33.923Z,71.60
2019-02-15T13:11:04.324Z,72.60
2019-02-15T13:13:34.307Z,71.70
2019-02-15T13:16:05.131Z,71.90
2019-02-15T13:18:34.839Z,71.60
2019-02-15T13:21:05.955Z,69.30
2019-02-15T13:23:36.662Z,70.60
2019-02-15T13:26:08.859Z,71.60
2019-02-15T13:28:40.969Z,70.50
2019-02-15T13:31:11.428Z,68.30
2019-02-15T13:33:42.014Z,70.00
2019-02-15T13:36:12.502Z,70.00
2019-02-15T13:38:42.703Z,68.50
2019-02-15T13:41:13.080Z,70.80
2019-02-15T13:43:43.097Z,71.30
2019-02-15T13:46:13.539Z,70.20
2019-02-15T13:48:46.644Z,70.30
2019-02-15T13:51:17.417Z,69.50
2019-02-15T13:53:48.055Z,69.00
2019-02-15T13:56:18.697Z,68.10
2019-02-15T13:58:49.065Z,67.30
2019-02-15T14:01:19.841Z,68.20
2019-02-15T14:03:51.429Z,69.70
2019-02-15T14:06:22.113Z,67.50
2019-02-15T14:08:53.783Z,67.10
2019-02-15T14:11:24.190Z,68.30
2019-02-15T14:13:53.948Z,69.60
2019-02-15T14:16:24.896Z,71.00
2019-02-15T14:18:54.719Z,69.80
2019-02-15T14:21:24.879Z,70.50
2019-02-15T14:23:54.449Z,69.80
2019-02-15T14:26:25.668Z,70.80
2019-02-15T14:28:56.011Z,72.40
2019-02-15T14:31:25.883Z,72.00
2019-02-15T14:33:56.731Z,71.90
2019-02-15T14:36:27.379Z,72.50
2019-02-15T14:38:57.524Z,70.60
2019-02-15T14:41:27.824Z,71.00
2019-02-15T14:43:58.520Z,70.70
2019-02-15T14:46:28.788Z,70.90
2019-02-15T14:48:59.582Z,70.90
2019-02-15T14:51:31.618Z,71.90
2019-02-15T14:54:01.279Z,73.70
2019-02-15T14:56:31.531Z,74.20
2019-02-15T14:59:02.754Z,74.10
2019-02-15T15:01:32.910Z,76.20
2019-02-15T15:04:03.031Z,74.90
2019-02-15T15:06:34.538Z,76.60
2019-02-15T15:09:06.305Z,77.10
2019-02-15T15:11:37.038Z,77.50
2019-02-15T15:14:07.384Z,78.60
2019-02-15T15:16:37.950Z,75.40
2019-02-15T15:19:08.528Z,76.70
2019-02-15T15:21:38.962Z,74.30
2019-02-15T15:24:09.699Z,76.60
2019-02-15T15:26:41.071Z,76.10
2019-02-15T15:29:11.506Z,76.50
2019-02-15T15:31:42.178Z,76.90
2019-02-15T15:34:13.736Z,78.70
2019-02-15T15:36:46.031Z,79.20
2019-02-15T15:39:17.140Z,78.70
2019-02-15T15:41:47.747Z,80.60
2019-02-15T15:44:17.740Z,84.90
2019-02-15T15:46:50.502Z,86.20
2019-02-15T15:49:20.887Z,88.60
2019-02-15T15:51:51.035Z,89.40
2019-02-15T15:54:21.598Z,89.90
2019-02-15T15:56:51.745Z,90.10
2019-02-15T15:59:22.257Z,90.90
2019-02-15T16:01:52.559Z,91.30
2019-02-15T16:04:22.867Z,91.00
2019-02-15T16:06:52.945Z,91.60
2019-02-15T16:09:22.745Z,92.50
2019-02-15T16:11:52.935Z,92.70
2019-02-15T16:14:23.648Z,92.80
2019-02-15T16:16:54.293Z,93.20
2019-02-15T16:19:24.318Z,93.10
2019-02-15T16:21:55.845Z,93.30
2019-02-15T16:24:27.080Z,93.30
2019-02-15T16:26:58.272Z,93.30
2019-02-15T16:29:28.919Z,93.40
2019-02-15T16:31:59.775Z,93.50
2019-02-15T16:34:30.260Z,93.60
2019-02-15T16:37:02.342Z,93.70
2019-02-15T16:39:34.862Z,93.40
2019-02-15T16:42:05.821Z,93.70
2019-02-15T16:44:36.458Z,93.70
2019-02-15T16:47:07.034Z,93.80
2019-02-15T16:49:37.558Z,94.10
2019-02-15T16:52:08.074Z,94.00
2019-02-15T16:54:38.272Z,94.10
2019-02-15T16:57:08.422Z,94.30
2019-02-15T16:59:39.745Z,94.40
2019-02-15T17:02:10.870Z,94.50
2019-02-15T17:04:41.134Z,94.70
2019-02-15T17:07:11.292Z,94.90
2019-02-15T17:09:42.283Z,94.60
2019-02-15T17:12:12.591Z,94.80
2019-02-15T17:14:42.983Z,95.20
2019-02-15T17:17:13.879Z,95.40
2019-02-15T17:20:04.949Z,95.70
2019-02-15T17:22:36.206Z,95.70
2019-02-15T17:25:08.345Z,95.90
2019-02-15T17:27:40.061Z,95.90
2019-02-15T17:30:11.235Z,95.90
2019-02-15T17:32:52.777Z,95.70
2019-02-15T17:35:24.478Z,95.90
2019-02-15T17:37:56.270Z,95.60
2019-02-15T17:40:27.586Z,95.60
2019-02-15T17:42:59.138Z,95.70
2019-02-15T17:45:31.210Z,95.90
2019-02-15T17:48:02.592Z,96.00
2019-02-15T17:50:33.532Z,95.90
2019-02-15T17:53:05.696Z,96.20
2019-02-15T17:55:36.852Z,96.50
2019-02-15T17:58:07.991Z,96.40
2019-02-15T18:00:39.028Z,96.20
2019-02-15T18:03:10.334Z,96.50
2019-02-15T18:05:41.553Z,96.50
2019-02-15T18:08:13.044Z,96.60
2019-02-15T18:10:45.642Z,96.70
2019-02-15T18:13:16.854Z,96.80
2019-02-15T18:15:47.707Z,96.60
2019-02-15T18:18:18.531Z,96.70
2019-02-15T18:20:48.975Z,96.70
2019-02-15T18:23:19.896Z,96.80
2019-02-15T18:25:51.256Z,97.00
2019-02-15T18:28:22.532Z,96.90
2019-02-15T18:30:54.077Z,97.10
2019-02-15T18:33:24.962Z,97.30
2019-02-15T18:35:56.362Z,97.40
2019-02-15T18:38:27.189Z,97.40
2019-02-15T18:40:58.163Z,97.80
2019-02-15T18:43:29.642Z,97.70
2019-02-15T18:46:00.639Z,97.90
2019-02-15T18:48:36.682Z,97.70
2019-02-15T18:51:07.873Z,97.90
2019-02-15T18:53:39.378Z,97.70
2019-02-15T18:56:10.898Z,97.70
2019-02-15T18:58:41.877Z,97.70
2019-02-15T19:01:33.728Z,97.60
2019-02-15T19:04:05.285Z,97.40
2019-02-15T19:06:37.227Z,97.30
2019-02-15T19:09:28.839Z,97.30
2019-02-15T19:12:02.966Z,97.40
2019-02-15T19:14:34.517Z,97.40
2019-02-15T19:17:06.452Z,97.40
2019-02-15T19:19:37.404Z,97.40
2019-02-15T19:22:26.600Z,97.60
2019-02-15T19:24:57.902Z,98.00
2019-02-15T19:27:29.309Z,97.50
2019-02-15T19:30:00.842Z,97.40
2019-02-15T19:32:32.157Z,97.40
2019-02-15T19:35:04.926Z,97.40
2019-02-15T19:37:36.161Z,97.20
2019-02-15T19:40:07.991Z,97.40
2019-02-15T19:42:39.725Z,97.60
2019-02-15T19:45:11.348Z,97.60
2019-02-15T19:47:43.977Z,98.00
2019-02-15T19:50:15.549Z,98.40
2019-02-15T19:52:47.039Z,98.40
2019-02-15T19:55:18.752Z,98.40
2019-02-15T19:57:49.668Z,98.10
2019-02-15T20:00:23.155Z,98.20
2019-02-15T20:02:54.383Z,98.30
2019-02-15T20:05:25.593Z,98.20
2019-02-15T20:07:59.074Z,98.10
2019-02-15T20:10:30.589Z,98.20
2019-02-15T20:13:01.704Z,98.30
2019-02-15T20:15:33.436Z,98.60
2019-02-15T20:18:05.755Z,98.90
2019-02-15T20:20:36.790Z,98.70
2019-02-15T20:23:08.736Z,98.80
2019-02-15T20:25:39.764Z,99.00
2019-02-15T20:28:14.080Z,99.20
2019-02-15T20:30:44.156Z,99.00
2019-02-15T20:33:15.235Z,98.80
2019-02-15T20:35:46.222Z,99.00
2019-02-15T20:38:17.405Z,99.00
2019-02-15T20:40:48.495Z,99.10
2019-02-15T20:43:19.123Z,99.90
2019-02-15T20:45:52.718Z,99.90
2019-02-15T20:48:23.767Z,99.70
2019-02-15T20:51:16.588Z,99.70
2019-02-15T20:53:47.519Z,99.80
2019-02-15T20:56:20.811Z,99.90
2019-02-15T20:58:52.786Z,99.90
2019-02-15T21:01:23.577Z,99.80
2019-02-15T21:03:55.542Z,99.90
2019-02-15T21:06:26.306Z,99.60
2019-02-15T21:08:57.867Z,99.90
2019-02-15T21:11:29.092Z,99.90
2019-02-15T21:14:00.433Z,99.90
2019-02-15T21:16:31.487Z,99.90
2019-02-15T21:19:02.007Z,99.90
2019-02-15T21:21:33.492Z,99.90
2019-02-15T21:24:04.024Z,99.90
2019-02-15T21:26:34.904Z,99.90
2019-02-15T21:29:07.697Z,99.90
2019-02-15T21:31:38.249Z,99.90
2019-02-15T21:34:08.383Z,99.90
2019-02-15T21:36:42.788Z,99.90
2019-02-15T21:39:13.618Z,99.90
2019-02-15T21:41:44.267Z,99.90
2019-02-15T21:44:14.384Z,99.90
2019-02-15T21:46:45.091Z,99.90
2019-02-15T21:49:15.226Z,99.90
2019-02-15T21:51:45.481Z,99.90
2019-02-15T21:54:15.691Z,99.90
2019-02-15T21:56:46.656Z,99.90
2019-02-15T21:59:16.555Z,99.90
2019-02-15T22:01:46.632Z,99.90
2019-02-15T22:04:17.075Z,99.90
2019-02-15T22:06:47.309Z,99.90
2019-02-15T22:09:17.431Z,99.90
2019-02-15T22:11:47.765Z,99.90
2019-02-15T22:14:18.394Z,99.90
2019-02-15T22:17:09.203Z,99.90
2019-02-15T22:19:39.763Z,99.90
2019-02-15T22:22:10.633Z,99.90
2019-02-15T22:24:41.508Z,99.90
2019-02-15T22:27:12.472Z,99.90
2019-02-15T22:29:42.575Z,99.90
2019-02-15T22:32:13.970Z,99.90
2019-02-15T22:34:44.116Z,99.90
2019-02-15T22:37:14.061Z,99.90
2019-02-15T22:39:44.697Z,99.90
2019-02-15T22:42:14.555Z,99.90
2019-02-15T22:44:45.525Z,99.90
2019-02-15T22:47:15.301Z,99.90
2019-02-15T22:49:44.998Z,99.90
2019-02-15T22:52:20.762Z,99.90
2019-02-15T22:54:51.420Z,99.90
2019-02-15T22:57:22.033Z,99.90
2019-02-15T22:59:54.740Z,99.90
2019-02-15T23:02:25.324Z,99.90
2019-02-15T23:04:55.618Z,99.90
2019-02-15T23:07:25.414Z,99.90
2019-02-15T23:09:55.740Z,99.90
2019-02-15T23:12:26.019Z,99.90
2019-02-15T23:14:55.981Z,99.90
2019-02-15T23:17:26.700Z,99.90
2019-02-15T23:19:56.567Z,99.90
2019-02-15T23:22:26.740Z,99.90
2019-02-15T23:24:56.737Z,99.90
2019-02-15T23:27:27.293Z,99.90
2019-02-15T23:29:57.490Z,99.90
2019-02-15T23:32:28.256Z,99.90
2019-02-15T23:34:58.144Z,99.90
2019-02-15T23:37:28.314Z,99.90
2019-02-15T23:39:58.043Z,99.90
2019-02-15T23:42:28.665Z,99.90
2019-02-15T23:44:58.886Z,99.90
2019-02-15T23:47:28.902Z,99.90
2019-02-15T23:49:59.006Z,99.90
2019-02-15T23:52:29.488Z,99.90
2019-02-15T23:54:59.582Z,99.90
2019-02-15T23:57:29.841Z,99.90
2019-02-15T23:59:59.743Z,99.90
